Terminal Aerodrome Forecast
Issued by NWS Memphis, TN

Home | Current Version | Previous Version | Text Only | Print | Product List | Glossary On
Versions: 1 2 3 4 5 6 7 8 9 10 11 12 13 14 15 16 17 18
000
FTUS44 KMEG 191129
TAFJBR
TAF
KJBR 191129Z 1912/2012 06008KT P6SM SCT008 OVC035
      TEMPO 1912/1914 BKN008
     FM191500 06008KT P6SM SCT025 OVC040
     FM192200 05005KT P6SM VCSH BKN025 OVC080
     FM200400 02005KT P6SM OVC020=

USA.gov is the U.S. government's official web portal to all federal, state and local government web resources and services.